Latest Weather Observations for Red Rocks Point

IDW60801

Issued at 7:43 pm WST Wednesday 8 December 2021 (issued every 10 minutes, with the page automatically refreshed every 10 minutes)

About weather observations | Map of weather stations | Latest weather observations for WA | Other Formats
Station Details ID: 011053 Name: RED ROCKS POINT Lat: -32.20 Lon: 127.53 Height: 3.1 m
Data from the previous 72 hours. | See also: Recent months at Red Rocks Point
Date/Time
WST
Temp
°C
App
Temp
°C
Dew
Point
°C
Rel
Hum
%
Delta-T
°C
Wind Press
QNH
hPa
Press
MSL
hPa
Rain since
9am
mm
Dir  Spd
km/h
Gust
km/h
Spd
kts
Gust
kts
08/07:30pm 17.1 10.5 11.4 69 3.1 E 37 43 20 23 1023.4 1023.4 0.0
08/07:00pm 17.1 10.3 10.7 66 3.4 E 37 43 20 23 1023.1 1023.1 0.0
08/06:30pm 17.2 10.5 11.0 67 3.3 E 37 43 20 23 1023.1 1023.1 0.0
08/06:00pm 17.3 10.8 11.6 69 3.1 E 37 44 20 24 1022.7 1022.7 0.0
08/05:30pm 17.4 10.8 11.2 67 3.4 ESE 37 43 20 23 1022.7 1022.7 0.0
08/05:00pm 17.4 11.0 10.8 65 3.5 ESE 35 43 19 23 1022.4 1022.4 0.0
08/04:30pm 17.5 11.2 11.1 66 3.5 E 35 43 19 23 1022.3 1022.3 0.0
08/04:00pm 18.1 11.9 10.2 60 4.2 ESE 33 37 18 20 1022.3 1022.3 0.0
08/03:30pm 18.1 11.5 10.0 59 4.3 ESE 35 43 19 23 1022.3 1022.3 0.0
08/03:00pm 18.3 11.8 11.6 65 3.7 ESE 37 43 20 23 1022.5 1022.5 0.0
08/02:30pm 19.3 13.0 11.1 59 4.5 ESE 35 43 19 23 1022.7 1022.7 0.0
08/02:00pm 18.8 12.5 10.9 60 4.3 ESE 35 43 19 23 1022.9 1022.9 0.0
08/01:30pm 19.2 12.9 11.0 59 4.5 ESE 35 43 19 23 1022.8 1022.8 0.0
08/01:00pm 19.3 12.7 11.3 60 4.4 ESE 37 43 20 23 1023.0 1023.0 0.0
08/12:30pm 19.7 13.1 10.1 54 5.2 ESE 35 41 19 22 1023.2 1023.2 0.0
08/12:00pm 19.8 13.6 9.4 51 5.5 ESE 32 37 17 20 1023.5 1023.5 0.0
08/11:30am 20.0 14.6 9.6 51 5.5 ESE 28 33 15 18 1023.8 1023.8 0.0
08/11:00am 19.8 14.1 9.7 52 5.4 ESE 30 37 16 20 1024.1 1024.1 0.0
08/10:30am 19.1 12.9 9.3 53 5.2 ESE 32 35 17 19 1024.2 1024.2 0.0
08/10:00am 18.9 12.7 9.4 54 5.0 ESE 32 39 17 21 1024.4 1024.4 0.0
08/09:30am 18.9 13.0 11.0 60 4.3 ESE 33 39 18 21 1024.3 1024.3 0.0
08/09:00am 19.1 13.3 10.9 59 4.4 ESE 32 35 17 19 1024.6 1024.6 0.0
08/08:30am 18.6 12.8 10.9 61 4.2 ESE 32 39 17 21 1024.7 1024.7 0.0
08/08:00am 17.8 12.4 10.9 64 3.7 ESE 30 35 16 19 1025.0 1025.0 0.0
08/07:30am 17.6 12.2 10.9 65 3.6 ESE 30 35 16 19 1025.0 1025.0 0.0
08/07:00am 17.0 11.7 11.3 69 3.1 ESE 30 35 16 19 1024.7 1024.7 0.0
08/06:30am 17.0 11.3 11.3 69 3.1 ESE 32 41 17 22 1024.7 1024.7 0.0
08/06:00am 16.7 10.8 10.5 67 3.3 ESE 32 37 17 20 1024.4 1024.4 0.0
08/05:30am 16.7 11.0 11.0 69 3.1 E 32 39 17 21 1024.0 1024.0 0.0
08/05:00am 16.5 10.6 10.6 68 3.1 ESE 32 39 17 21 1023.4 1023.4 0.0
08/04:30am 16.4 9.5 10.3 67 3.2 E 37 43 20 23 1023.1 1023.1 0.0
08/04:00am 16.3 9.5 10.8 70 2.9 E 37 43 20 23 1022.3 1022.3 0.0
08/03:30am 16.4 9.4 11.3 72 2.7 ESE 39 46 21 25 1022.2 1022.2 0.0
08/03:00am 16.4 9.6 10.7 69 3.0 ESE 37 43 20 23 1022.1 1022.1 0.0
08/02:30am 16.6 10.8 10.7 68 3.1 ESE 32 39 17 21 1022.0 1022.0 0.0
08/02:00am 16.4 9.4 10.0 66 3.3 ESE 37 43 20 23 1021.8 1021.8 0.0
08/01:30am 16.5 9.4 10.8 69 3.0 ESE 39 48 21 26 1022.0 1022.0 0.0
08/01:00am 16.3 10.6 11.0 71 2.8 E 32 41 17 22 1022.2 1022.2 0.0
08/12:30am 16.7 11.8 11.2 70 3.0 ESE 28 35 15 19 1022.4 1022.4 0.0
08/12:00am 16.6 11.4 10.2 66 3.4 ESE 28 33 15 18 1022.6 1022.6 0.0
 
Date/Time
WST
Temp
°C
App
Temp
°C
Dew
Point
°C
Rel
Hum
%
Delta-T
°C
Wind Press
QNH
hPa
Press
MSL
hPa
Rain since
9am
mm
Dir  Spd
km/h
Gust
km/h
Spd
kts
Gust
kts
07/11:30pm 16.6 11.2 9.5 63 3.7 ESE 28 35 15 19 1022.9 1022.9 0.0
07/11:00pm 16.6 11.0 10.2 66 3.4 ESE 30 37 16 20 1023.0 1023.0 0.0
07/10:30pm 16.9 10.7 10.1 64 3.6 ESE 33 39 18 21 1023.3 1023.3 0.0
07/10:00pm 16.8 10.0 10.6 67 3.3 ESE 37 43 20 23 1023.3 1023.3 0.0
07/09:30pm 16.9 10.7 11.4 70 3.0 ESE 35 41 19 22 1023.6 1023.6 0.0
07/09:00pm 17.0 10.9 11.9 72 2.8 ESE 35 43 19 23 1023.5 1023.5 0.0
07/08:30pm 16.9 10.6 12.2 74 2.6 ESE 37 43 20 23 1023.4 1023.4 0.0
07/08:00pm 16.8 10.7 11.7 72 2.8 ESE 35 43 19 23 1022.9 1022.9 0.0
07/07:30pm 16.7 10.6 11.8 73 2.7 SE 35 43 19 23 1022.7 1022.7 0.0
07/07:00pm 16.7 10.6 11.6 72 2.8 ESE 35 41 19 22 1022.4 1022.4 0.0
07/06:30pm 16.5 9.8 11.0 70 2.9 SE 37 43 20 23 1022.3 1022.3 0.0
07/06:00pm 16.8 10.2 11.5 71 2.9 SE 37 43 20 23 1022.0 1022.0 0.0
07/05:30pm 17.4 11.7 13.1 76 2.4 SE 35 41 19 22 1021.8 1021.8 0.0
07/05:00pm 17.4 11.3 11.9 70 3.0 SE 35 39 19 21 1021.6 1021.6 0.0
07/04:30pm 17.8 12.3 10.4 62 3.9 SE 30 35 16 19 1021.4 1021.4 0.0
07/04:00pm 17.9 12.7 11.5 66 3.5 SE 30 33 16 18 1021.4 1021.4 0.0
07/03:30pm 18.4 13.1 10.0 58 4.5 SE 28 32 15 17 1021.4 1021.4 0.0
07/03:00pm 19.1 14.2 10.1 56 4.8 SE 26 30 14 16 1021.5 1021.5 0.0
07/02:30pm 19.1 14.7 10.4 57 4.7 SE 24 28 13 15 1021.8 1021.8 0.0
07/02:00pm 19.0 14.1 10.0 56 4.8 ESE 26 32 14 17 1022.0 1022.0 0.0
07/01:30pm 19.0 13.7 9.8 55 4.9 ESE 28 33 15 18 1022.0 1022.0 0.0
07/01:00pm 19.0 13.6 10.8 59 4.4 ESE 30 33 16 18 1022.1 1022.1 0.0
07/12:30pm 19.6 14.0 11.6 60 4.4 ESE 32 35 17 19 1022.0 1022.0 0.0
07/12:00pm 19.8 14.8 12.3 62 4.2 ESE 30 35 16 19 1022.0 1022.0 0.0
07/11:30am 18.9 14.1 11.7 63 4.0 SE 28 32 15 17 1022.3 1022.3 0.0
07/11:00am 19.0 14.6 11.6 62 4.1 SE 26 32 14 17 1022.5 1022.5 0.0
07/10:30am 18.9 14.8 11.5 62 4.1 SE 24 28 13 15 1022.7 1022.7 0.0
07/10:00am 19.6 15.9 10.3 55 5.0 SE 20 26 11 14 1022.9 1022.9 0.0
07/09:30am 18.3 14.8 10.9 62 4.0 SE 20 26 11 14 1023.1 1023.1 0.0
07/09:00am 17.6 13.7 10.7 64 3.7 ESE 22 26 12 14 1023.0 1023.0 0.0
07/08:30am 17.8 13.7 11.4 66 3.5 SE 24 30 13 16 1022.6 1022.6 0.0
07/08:00am 17.5 12.7 11.5 68 3.3 SE 28 33 15 18 1022.4 1022.4 0.0
07/07:30am 17.5 12.2 11.1 66 3.5 SE 30 35 16 19 1022.2 1022.2 0.0
07/07:00am 17.0 11.7 11.3 69 3.1 SE 30 35 16 19 1022.1 1022.1 0.0
07/06:30am 17.1 12.2 11.4 69 3.1 SE 28 33 15 18 1021.8 1021.8 0.0
07/06:00am 16.9 12.3 11.2 69 3.1 SE 26 30 14 16 1021.5 1021.5 0.0
07/05:30am 16.6 12.2 10.5 67 3.2 SSE 24 28 13 15 1021.3 1021.3 0.0
07/05:00am 16.5 11.6 11.2 71 2.8 SE 28 35 15 19 1020.9 1020.9 0.0
07/04:30am 16.3 11.5 11.5 73 2.6 SE 28 32 15 17 1020.6 1020.6 0.0
07/04:00am 16.4 10.9 12.0 75 2.4 SE 32 37 17 20 1020.1 1020.1 0.0
07/03:30am 16.5 11.2 12.5 77 2.2 SSE 32 35 17 19 1019.8 1019.8 0.0
07/03:00am 16.5 11.2 12.5 77 2.2 SSE 32 37 17 20 1019.6 1019.6 0.0
07/02:30am 16.5 11.3 12.7 78 2.1 SSE 32 37 17 20 1019.5 1019.5 0.0
07/02:00am 16.5 10.7 12.7 78 2.1 SE 35 39 19 21 1019.2 1019.2 0.0
07/01:30am 16.6 11.2 12.9 79 2.1 SSE 33 39 18 21 1019.2 1019.2 0.0
07/01:00am 16.8 11.6 13.3 80 2.0 SSE 33 41 18 22 1019.1 1019.1 0.0
07/12:30am 16.7 10.5 13.8 83 1.6 SE 39 44 21 24 1019.1 1019.1 0.0
07/12:00am 17.0 12.0 14.1 83 1.6 SSE 33 39 18 21 1019.2 1019.2 0.0
 
Date/Time
WST
Temp
°C
App
Temp
°C
Dew
Point
°C
Rel
Hum
%
Delta-T
°C
Wind Press
QNH
hPa
Press
MSL
hPa
Rain since
9am
mm
Dir  Spd
km/h
Gust
km/h
Spd
kts
Gust
kts
06/11:30pm 17.2 12.4 14.1 82 1.8 SSE 32 35 17 19 1019.3 1019.3 0.0
06/11:00pm 17.0 11.8 13.5 80 2.0 SSE 33 37 18 20 1019.6 1019.6 0.0
06/10:30pm 17.4 13.8 14.3 82 1.8 S 26 37 14 20 1019.7 1019.7 0.0
06/10:00pm 17.4 13.5 12.1 71 2.9 S 24 28 13 15 1020.0 1020.0 0.0
06/09:30pm 17.4 14.3 12.3 72 2.8 SSE 20 24 11 13 1020.0 1020.0 0.0
06/09:00pm 17.2 13.2 11.9 71 2.9 SE 24 28 13 15 1019.7 1019.7 0.0
06/08:30pm 17.2 13.2 11.9 71 2.9 SSE 24 30 13 16 1019.7 1019.7 0.0
06/08:00pm 17.3 13.0 12.0 71 2.9 SSE 26 30 14 16 1019.5 1019.5 0.0
06/07:30pm 17.4 12.7 12.1 71 2.9 SSE 28 33 15 18 1019.2 1019.2 0.0
06/07:00pm 17.4 12.4 11.0 66 3.4 SSE 28 30 15 16 1018.9 1018.9 0.0
06/06:30pm 17.5 12.6 11.3 67 3.4 SSE 28 33 15 18 1018.7 1018.7 0.0
06/06:00pm 17.7 12.8 11.3 66 3.5 SSE 28 33 15 18 1018.4 1018.4 0.0
06/05:30pm 18.1 12.5 10.2 60 4.2 S 30 33 16 18 1018.4 1018.4 0.0
06/05:00pm 18.6 14.1 11.4 63 3.9 S 26 30 14 16 1018.1 1018.1 0.0
06/04:30pm 18.7 14.0 12.0 65 3.7 SSE 28 32 15 17 1017.7 1017.7 0.0
06/04:00pm 19.1 14.4 12.1 64 3.9 SSE 28 32 15 17 1017.4 1017.4 0.0
06/03:30pm 19.2 15.0 12.5 65 3.7 SSE 26 32 14 17 1017.4 1017.4 0.0
06/03:00pm 19.5 15.1 12.8 65 3.8 SSE 28 30 15 16 1017.6 1017.6 0.0
06/02:30pm 19.5 15.2 13.2 67 3.6 SSE 28 33 15 18 1017.6 1017.6 0.0
06/02:00pm 20.0 16.5 13.5 66 3.7 SSE 24 30 13 16 1017.5 1017.5 0.0
06/01:30pm 21.0 17.9 13.4 62 4.4 SSE 22 28 12 15 1017.6 1017.6 0.0
06/01:00pm 21.2 17.7 13.4 61 4.5 SSE 24 28 13 15 1017.7 1017.7 0.0
06/12:30pm 21.4 18.1 14.1 63 4.2 SSE 24 28 13 15 1017.6 1017.6 0.0
06/12:00pm 21.5 18.1 13.7 61 4.5 S 24 30 13 16 1017.6 1017.6 0.0
06/11:30am 21.1 18.7 14.3 65 4.0 SSE 20 24 11 13 1017.6 1017.6 0.0
06/11:00am 20.8 18.0 13.3 62 4.3 SSE 20 24 11 13 1017.5 1017.5 0.0
06/10:30am 21.5 18.9 13.2 59 4.8 S 19 20 10 11 1017.5 1017.5 0.0
06/10:00am 21.3 19.5 12.2 56 5.1 SSE 13 19 7 10 1017.3 1017.3 0.0
06/09:30am 20.2 16.9 11.7 58 4.7 SSE 20 24 11 13 1017.4 1017.4 0.0
06/09:00am 20.0 17.6 13.9 68 3.5 SSE 19 20 10 11 1017.5 1017.5 0.0
06/08:30am 19.4 16.9 14.2 72 3.0 SSE 20 22 11 12 1017.5 1017.5 0.0
06/08:00am 19.3 17.2 13.5 69 3.3 SE 17 19 9 10 1017.4 1017.4 0.0
06/07:30am 18.9 17.2 13.7 72 3.0 SE 15 19 8 10 1017.4 1017.4 0.0
06/07:00am 19.0 17.9 13.2 69 3.3 ESE 11 15 6 8 1016.9 1016.9 0.0
06/06:30am 18.0 15.9 13.5 75 2.5 SE 17 20 9 11 1016.7 1016.7 0.0
06/06:00am 17.7 15.5 13.4 76 2.4 SE 17 20 9 11 1016.5 1016.5 0.0
06/05:30am 17.6 15.6 13.9 79 2.1 SE 17 20 9 11 1016.3 1016.3 0.0
06/05:00am 17.2 15.1 13.7 80 2.0 SE 17 20 9 11 1016.0 1016.0 0.0
06/04:30am 17.1 15.1 13.8 81 1.9 ESE 17 20 9 11 1015.3 1015.3 0.0
06/04:00am 17.0 14.6 13.9 82 1.8 ESE 19 26 10 14 1015.0 1015.0 0.0
06/03:30am 15.1 15.2 12.6 85 1.4 NE 4 9 2 5 1014.8 1014.8 0.0
06/03:00am 15.2 14.3 12.7 85 1.4 NNE 9 11 5 6 1014.4 1014.4 0.0
06/02:30am 15.2 13.6 12.7 85 1.4 NE 13 17 7 9 1014.0 1014.0 0.0
06/02:00am 15.6 13.6 12.7 83 1.6 NE 15 19 8 10 1013.7 1013.7 0.0
06/01:30am 17.2 13.5 13.9 81 1.9 E 26 30 14 16 1013.7 1013.7 0.0
06/01:00am 17.3 13.3 14.0 81 1.9 ENE 28 32 15 17 1013.9 1013.9 0.0
06/12:30am 17.2 13.5 13.9 81 1.9 E 26 32 14 17 1014.2 1014.2 0.0
06/12:00am 17.3 13.5 13.6 79 2.1 E 26 32 14 17 1014.8 1014.8 0.0
 
Date/Time
WST
Temp
°C
App
Temp
°C
Dew
Point
°C
Rel
Hum
%
Delta-T
°C
Wind Press
QNH
hPa
Press
MSL
hPa
Rain since
9am
mm
Dir  Spd
km/h
Gust
km/h
Spd
kts
Gust
kts
05/11:30pm 17.4 13.3 13.9 80 2.0 E 28 30 15 16 1015.1 1015.1 0.0
05/11:00pm 17.5 13.5 14.2 81 1.9 E 28 32 15 17 1015.6 1015.6 0.0
05/10:30pm 17.6 14.0 14.3 81 1.9 E 26 30 14 16 1016.0 1016.0 0.0
05/10:00pm 17.6 13.7 14.3 81 1.9 E 28 32 15 17 1016.4 1016.4 0.0
05/09:30pm 17.7 14.2 14.4 81 1.9 ESE 26 30 14 16 1016.5 1016.5 0.0
05/09:00pm 17.7 13.8 14.4 81 1.9 E 28 33 15 18 1016.4 1016.4 0.0
05/08:30pm 17.7 14.3 14.8 83 1.7 E 26 30 14 16 1016.2 1016.2 0.0
05/08:00pm 17.7 14.3 14.8 83 1.7 E 26 32 14 17 1016.0 1016.0 0.0

Other formats

Comma delimited format used in spreadsheet applications
http://www.bom.gov.au/fwo/IDW60801/IDW60801.94644.axf

JavaScript Object Notation format (JSON) in row-major order
http://www.bom.gov.au/fwo/IDW60801/IDW60801.94644.json

Data quality

Most of these data are generated automatically and are frequently updated. Quality checks on data are not normally performed. It is possible for incorrect values to appear. Refer to information at About Latest Weather Observations and please check the disclaimer before using these data.